sensor_id;sensor_type;location;lat;lon;timestamp;temperature;humidity
8099;DHT22;4092;47.876;9.372;2023-11-22T00:00:16;5.20;99.90
8099;DHT22;4092;47.876;9.372;2023-11-22T00:02:43;5.20;99.90
8099;DHT22;4092;47.876;9.372;2023-11-22T00:05:10;5.20;99.90
8099;DHT22;4092;47.876;9.372;2023-11-22T00:07:37;5.10;99.90
8099;DHT22;4092;47.876;9.372;2023-11-22T00:10:06;5.10;99.90
8099;DHT22;4092;47.876;9.372;2023-11-22T00:12:34;5.10;99.90
8099;DHT22;4092;47.876;9.372;2023-11-22T00:15:09;5.10;99.90
8099;DHT22;4092;47.876;9.372;2023-11-22T00:17:37;5.20;99.90
8099;DHT22;4092;47.876;9.372;2023-11-22T00:20:05;5.20;99.90
8099;DHT22;4092;47.876;9.372;2023-11-22T00:22:33;5.20;99.90
8099;DHT22;4092;47.876;9.372;2023-11-22T00:25:00;5.10;99.90
8099;DHT22;4092;47.876;9.372;2023-11-22T00:27:27;5.10;99.90
8099;DHT22;4092;47.876;9.372;2023-11-22T00:29:55;5.10;99.90
8099;DHT22;4092;47.876;9.372;2023-11-22T00:32:24;5.10;99.90
8099;DHT22;4092;47.876;9.372;2023-11-22T00:34:51;5.10;99.90
8099;DHT22;4092;47.876;9.372;2023-11-22T00:37:18;5.10;99.90
8099;DHT22;4092;47.876;9.372;2023-11-22T00:39:45;5.10;99.90
8099;DHT22;4092;47.876;9.372;2023-11-22T00:42:12;5.10;99.90
8099;DHT22;4092;47.876;9.372;2023-11-22T00:44:39;5.10;99.90
8099;DHT22;4092;47.876;9.372;2023-11-22T00:47:06;5.10;99.90
8099;DHT22;4092;47.876;9.372;2023-11-22T00:49:35;5.10;99.90
8099;DHT22;4092;47.876;9.372;2023-11-22T00:52:02;5.10;99.90
8099;DHT22;4092;47.876;9.372;2023-11-22T00:54:29;5.10;99.90
8099;DHT22;4092;47.876;9.372;2023-11-22T00:56:56;5.10;99.90
8099;DHT22;4092;47.876;9.372;2023-11-22T00:59:23;5.10;99.90
8099;DHT22;4092;47.876;9.372;2023-11-22T01:01:50;5.10;99.90
8099;DHT22;4092;47.876;9.372;2023-11-22T01:04:17;5.10;99.90
8099;DHT22;4092;47.876;9.372;2023-11-22T01:06:45;5.10;99.90
8099;DHT22;4092;47.876;9.372;2023-11-22T01:09:12;5.20;99.90
8099;DHT22;4092;47.876;9.372;2023-11-22T01:11:40;5.20;99.90
8099;DHT22;4092;47.876;9.372;2023-11-22T01:14:07;5.20;99.90
8099;DHT22;4092;47.876;9.372;2023-11-22T01:16:34;5.20;99.90
8099;DHT22;4092;47.876;9.372;2023-11-22T01:19:02;5.20;99.90
8099;DHT22;4092;47.876;9.372;2023-11-22T01:21:29;5.20;99.90
8099;DHT22;4092;47.876;9.372;2023-11-22T01:23:58;5.20;99.90
8099;DHT22;4092;47.876;9.372;2023-11-22T01:26:25;5.20;99.90
8099;DHT22;4092;47.876;9.372;2023-11-22T01:28:52;5.20;99.90
8099;DHT22;4092;47.876;9.372;2023-11-22T01:31:19;5.20;99.90
8099;DHT22;4092;47.876;9.372;2023-11-22T01:33:48;5.20;99.90
8099;DHT22;4092;47.876;9.372;2023-11-22T01:36:15;5.20;99.90
8099;DHT22;4092;47.876;9.372;2023-11-22T01:38:42;5.20;99.90
8099;DHT22;4092;47.876;9.372;2023-11-22T01:41:11;5.20;99.90
8099;DHT22;4092;47.876;9.372;2023-11-22T01:43:39;5.20;99.90
8099;DHT22;4092;47.876;9.372;2023-11-22T01:46:07;5.30;99.90
8099;DHT22;4092;47.876;9.372;2023-11-22T01:48:35;5.20;99.90
8099;DHT22;4092;47.876;9.372;2023-11-22T01:51:03;5.20;99.90
8099;DHT22;4092;47.876;9.372;2023-11-22T01:53:32;5.20;99.90
8099;DHT22;4092;47.876;9.372;2023-11-22T01:55:59;5.30;99.90
8099;DHT22;4092;47.876;9.372;2023-11-22T01:58:28;5.30;99.90
8099;DHT22;4092;47.876;9.372;2023-11-22T02:00:55;5.30;99.90
8099;DHT22;4092;47.876;9.372;2023-11-22T02:03:22;5.20;99.90
8099;DHT22;4092;47.876;9.372;2023-11-22T02:05:50;5.20;99.90
8099;DHT22;4092;47.876;9.372;2023-11-22T02:08:18;5.20;99.90
8099;DHT22;4092;47.876;9.372;2023-11-22T02:10:45;5.30;99.90
8099;DHT22;4092;47.876;9.372;2023-11-22T02:13:15;5.30;99.90
8099;DHT22;4092;47.876;9.372;2023-11-22T02:15:43;5.20;99.90
8099;DHT22;4092;47.876;9.372;2023-11-22T02:18:12;5.30;99.90
8099;DHT22;4092;47.876;9.372;2023-11-22T02:20:39;5.30;99.90
8099;DHT22;4092;47.876;9.372;2023-11-22T02:23:09;5.20;99.90
8099;DHT22;4092;47.876;9.372;2023-11-22T02:25:37;5.30;99.90
8099;DHT22;4092;47.876;9.372;2023-11-22T02:28:04;5.30;99.90
8099;DHT22;4092;47.876;9.372;2023-11-22T02:30:31;5.30;99.90
8099;DHT22;4092;47.876;9.372;2023-11-22T02:32:58;5.30;99.90
8099;DHT22;4092;47.876;9.372;2023-11-22T02:35:25;5.30;99.90
8099;DHT22;4092;47.876;9.372;2023-11-22T02:37:52;5.30;99.90
8099;DHT22;4092;47.876;9.372;2023-11-22T02:40:22;5.30;99.90
8099;DHT22;4092;47.876;9.372;2023-11-22T02:42:50;5.30;99.90
8099;DHT22;4092;47.876;9.372;2023-11-22T02:45:20;5.30;99.90
8099;DHT22;4092;47.876;9.372;2023-11-22T02:47:48;5.30;99.90
8099;DHT22;4092;47.876;9.372;2023-11-22T02:50:16;5.30;99.90
8099;DHT22;4092;47.876;9.372;2023-11-22T02:52:43;5.30;99.90
8099;DHT22;4092;47.876;9.372;2023-11-22T02:55:10;5.30;99.90
8099;DHT22;4092;47.876;9.372;2023-11-22T02:57:39;5.30;99.90
8099;DHT22;4092;47.876;9.372;2023-11-22T03:00:07;5.20;99.90
8099;DHT22;4092;47.876;9.372;2023-11-22T03:02:34;5.20;99.90
8099;DHT22;4092;47.876;9.372;2023-11-22T03:05:03;5.20;99.90
8099;DHT22;4092;47.876;9.372;2023-11-22T03:07:30;5.10;99.90
8099;DHT22;4092;47.876;9.372;2023-11-22T03:09:57;5.10;99.90
8099;DHT22;4092;47.876;9.372;2023-11-22T03:12:26;5.10;99.90
8099;DHT22;4092;47.876;9.372;2023-11-22T03:14:54;5.10;99.90
8099;DHT22;4092;47.876;9.372;2023-11-22T03:17:26;5.10;99.90
8099;DHT22;4092;47.876;9.372;2023-11-22T03:19:54;5.10;99.90
8099;DHT22;4092;47.876;9.372;2023-11-22T03:22:22;5.10;99.90
8099;DHT22;4092;47.876;9.372;2023-11-22T03:24:49;5.10;99.90
8099;DHT22;4092;47.876;9.372;2023-11-22T03:27:16;5.10;99.90
8099;DHT22;4092;47.876;9.372;2023-11-22T03:29:43;5.10;99.90
8099;DHT22;4092;47.876;9.372;2023-11-22T03:32:13;5.10;99.90
8099;DHT22;4092;47.876;9.372;2023-11-22T03:34:40;5.10;99.90
8099;DHT22;4092;47.876;9.372;2023-11-22T03:37:07;5.10;99.90
8099;DHT22;4092;47.876;9.372;2023-11-22T03:39:34;5.10;99.90
8099;DHT22;4092;47.876;9.372;2023-11-22T03:42:01;5.10;99.90
8099;DHT22;4092;47.876;9.372;2023-11-22T03:44:28;5.10;99.90
8099;DHT22;4092;47.876;9.372;2023-11-22T03:46:55;5.10;99.90
8099;DHT22;4092;47.876;9.372;2023-11-22T03:49:24;5.10;99.90
8099;DHT22;4092;47.876;9.372;2023-11-22T03:51:51;5.10;99.90
8099;DHT22;4092;47.876;9.372;2023-11-22T03:54:18;5.10;99.90
8099;DHT22;4092;47.876;9.372;2023-11-22T03:56:45;5.10;99.90
8099;DHT22;4092;47.876;9.372;2023-11-22T03:59:12;5.10;99.90
8099;DHT22;4092;47.876;9.372;2023-11-22T04:01:39;5.10;99.90
8099;DHT22;4092;47.876;9.372;2023-11-22T04:04:06;5.10;99.90
8099;DHT22;4092;47.876;9.372;2023-11-22T04:06:36;5.10;99.90
8099;DHT22;4092;47.876;9.372;2023-11-22T04:09:04;5.10;99.90
8099;DHT22;4092;47.876;9.372;2023-11-22T04:11:33;5.10;99.90
8099;DHT22;4092;47.876;9.372;2023-11-22T04:14:01;5.00;99.90
8099;DHT22;4092;47.876;9.372;2023-11-22T04:16:28;5.10;99.90
8099;DHT22;4092;47.876;9.372;2023-11-22T04:18:55;5.10;99.90
8099;DHT22;4092;47.876;9.372;2023-11-22T04:21:22;5.10;99.90
8099;DHT22;4092;47.876;9.372;2023-11-22T04:23:51;5.10;99.90
8099;DHT22;4092;47.876;9.372;2023-11-22T04:26:18;5.10;99.90
8099;DHT22;4092;47.876;9.372;2023-11-22T04:28:45;5.10;99.90
8099;DHT22;4092;47.876;9.372;2023-11-22T04:31:12;5.10;99.90
8099;DHT22;4092;47.876;9.372;2023-11-22T04:33:41;5.10;99.90
8099;DHT22;4092;47.876;9.372;2023-11-22T04:36:08;5.10;99.90
8099;DHT22;4092;47.876;9.372;2023-11-22T04:38:35;5.00;99.90
8099;DHT22;4092;47.876;9.372;2023-11-22T04:41:03;5.00;99.90
8099;DHT22;4092;47.876;9.372;2023-11-22T04:43:30;4.90;99.90
8099;DHT22;4092;47.876;9.372;2023-11-22T04:45:57;4.90;99.90
8099;DHT22;4092;47.876;9.372;2023-11-22T04:48:24;4.80;99.90
8099;DHT22;4092;47.876;9.372;2023-11-22T04:50:51;4.80;99.90
8099;DHT22;4092;47.876;9.372;2023-11-22T04:53:19;4.80;99.90
8099;DHT22;4092;47.876;9.372;2023-11-22T04:55:46;4.80;99.90
8099;DHT22;4092;47.876;9.372;2023-11-22T04:58:16;4.70;99.90
8099;DHT22;4092;47.876;9.372;2023-11-22T05:00:43;4.70;99.90
8099;DHT22;4092;47.876;9.372;2023-11-22T05:03:11;4.60;99.90
8099;DHT22;4092;47.876;9.372;2023-11-22T05:05:38;4.50;99.90
8099;DHT22;4092;47.876;9.372;2023-11-22T05:08:05;4.40;99.90
8099;DHT22;4092;47.876;9.372;2023-11-22T05:10:32;4.40;99.90
8099;DHT22;4092;47.876;9.372;2023-11-22T05:12:59;4.30;99.90
8099;DHT22;4092;47.876;9.372;2023-11-22T05:15:28;4.30;99.90
8099;DHT22;4092;47.876;9.372;2023-11-22T05:17:55;4.20;99.90
8099;DHT22;4092;47.876;9.372;2023-11-22T05:20:22;4.20;99.90
8099;DHT22;4092;47.876;9.372;2023-11-22T05:22:48;4.20;99.90
8099;DHT22;4092;47.876;9.372;2023-11-22T05:25:15;4.10;99.90
8099;DHT22;4092;47.876;9.372;2023-11-22T05:27:43;4.10;99.90
8099;DHT22;4092;47.876;9.372;2023-11-22T05:30:11;4.10;99.90
8099;DHT22;4092;47.876;9.372;2023-11-22T05:32:39;4.00;99.90
8099;DHT22;4092;47.876;9.372;2023-11-22T05:35:07;3.90;99.90
8099;DHT22;4092;47.876;9.372;2023-11-22T05:37:36;3.90;99.90
8099;DHT22;4092;47.876;9.372;2023-11-22T05:40:04;3.90;99.90
8099;DHT22;4092;47.876;9.372;2023-11-22T05:42:31;3.90;99.90
8099;DHT22;4092;47.876;9.372;2023-11-22T05:45:00;3.90;99.90
8099;DHT22;4092;47.876;9.372;2023-11-22T05:47:27;3.80;99.90
8099;DHT22;4092;47.876;9.372;2023-11-22T05:49:56;3.70;99.90
8099;DHT22;4092;47.876;9.372;2023-11-22T05:52:23;3.60;99.90
8099;DHT22;4092;47.876;9.372;2023-11-22T05:54:50;3.60;99.90
8099;DHT22;4092;47.876;9.372;2023-11-22T05:57:16;3.50;99.90
8099;DHT22;4092;47.876;9.372;2023-11-22T05:59:45;3.50;99.90
8099;DHT22;4092;47.876;9.372;2023-11-22T06:02:13;3.40;99.90
8099;DHT22;4092;47.876;9.372;2023-11-22T06:04:40;3.40;99.90
8099;DHT22;4092;47.876;9.372;2023-11-22T06:07:09;3.40;99.90
8099;DHT22;4092;47.876;9.372;2023-11-22T06:09:36;3.30;99.90
8099;DHT22;4092;47.876;9.372;2023-11-22T06:12:03;3.30;99.90
8099;DHT22;4092;47.876;9.372;2023-11-22T06:14:31;3.30;99.90
8099;DHT22;4092;47.876;9.372;2023-11-22T06:16:57;3.30;99.90
8099;DHT22;4092;47.876;9.372;2023-11-22T06:19:24;3.30;99.90
8099;DHT22;4092;47.876;9.372;2023-11-22T06:21:51;3.30;99.90
8099;DHT22;4092;47.876;9.372;2023-11-22T06:24:20;3.30;99.90
8099;DHT22;4092;47.876;9.372;2023-11-22T06:26:47;3.40;99.90
8099;DHT22;4092;47.876;9.372;2023-11-22T06:29:15;3.40;99.90
8099;DHT22;4092;47.876;9.372;2023-11-22T06:31:42;3.30;99.90
8099;DHT22;4092;47.876;9.372;2023-11-22T06:34:09;3.40;99.90
8099;DHT22;4092;47.876;9.372;2023-11-22T06:36:36;3.40;99.90
8099;DHT22;4092;47.876;9.372;2023-11-22T06:39:03;3.40;99.90
8099;DHT22;4092;47.876;9.372;2023-11-22T06:41:33;3.40;99.90
8099;DHT22;4092;47.876;9.372;2023-11-22T06:44:00;3.40;99.90
8099;DHT22;4092;47.876;9.372;2023-11-22T06:46:28;3.30;99.90
8099;DHT22;4092;47.876;9.372;2023-11-22T06:48:55;3.30;99.90
8099;DHT22;4092;47.876;9.372;2023-11-22T06:51:22;3.30;99.90
8099;DHT22;4092;47.876;9.372;2023-11-22T06:53:49;3.40;99.90
8099;DHT22;4092;47.876;9.372;2023-11-22T06:56:17;3.50;99.90
8099;DHT22;4092;47.876;9.372;2023-11-22T06:58:46;3.50;99.90
8099;DHT22;4092;47.876;9.372;2023-11-22T07:01:13;3.50;99.90
8099;DHT22;4092;47.876;9.372;2023-11-22T07:03:41;3.50;99.90
8099;DHT22;4092;47.876;9.372;2023-11-22T07:06:08;3.50;99.90
8099;DHT22;4092;47.876;9.372;2023-11-22T07:08:35;3.50;99.90
8099;DHT22;4092;47.876;9.372;2023-11-22T07:11:03;3.50;99.90
8099;DHT22;4092;47.876;9.372;2023-11-22T07:13:31;3.50;99.90
8099;DHT22;4092;47.876;9.372;2023-11-22T07:16:00;3.40;99.90
8099;DHT22;4092;47.876;9.372;2023-11-22T07:18:27;3.40;99.90
8099;DHT22;4092;47.876;9.372;2023-11-22T07:20:54;3.30;99.90
8099;DHT22;4092;47.876;9.372;2023-11-22T07:23:21;3.30;99.90
8099;DHT22;4092;47.876;9.372;2023-11-22T07:25:52;3.30;99.90
8099;DHT22;4092;47.876;9.372;2023-11-22T07:28:20;3.20;99.90
8099;DHT22;4092;47.876;9.372;2023-11-22T07:30:47;3.20;99.90
8099;DHT22;4092;47.876;9.372;2023-11-22T07:33:18;3.10;99.90
8099;DHT22;4092;47.876;9.372;2023-11-22T07:35:46;3.00;99.90
8099;DHT22;4092;47.876;9.372;2023-11-22T07:38:14;2.90;99.90
8099;DHT22;4092;47.876;9.372;2023-11-22T07:40:43;2.90;99.90
8099;DHT22;4092;47.876;9.372;2023-11-22T07:43:10;2.80;99.90
8099;DHT22;4092;47.876;9.372;2023-11-22T07:45:37;2.70;99.90
8099;DHT22;4092;47.876;9.372;2023-11-22T07:48:04;2.60;99.90
8099;DHT22;4092;47.876;9.372;2023-11-22T07:50:33;2.60;99.90
8099;DHT22;4092;47.876;9.372;2023-11-22T07:53:00;2.60;99.90
8099;DHT22;4092;47.876;9.372;2023-11-22T07:55:28;2.60;99.90
8099;DHT22;4092;47.876;9.372;2023-11-22T07:57:55;2.60;99.90
8099;DHT22;4092;47.876;9.372;2023-11-22T08:00:22;2.50;99.90
8099;DHT22;4092;47.876;9.372;2023-11-22T08:02:50;2.50;99.90
8099;DHT22;4092;47.876;9.372;2023-11-22T08:05:19;2.50;99.90
8099;DHT22;4092;47.876;9.372;2023-11-22T08:07:50;2.40;99.90
8099;DHT22;4092;47.876;9.372;2023-11-22T08:10:17;2.40;99.90
8099;DHT22;4092;47.876;9.372;2023-11-22T08:12:46;2.40;99.90
8099;DHT22;4092;47.876;9.372;2023-11-22T08:15:15;2.40;99.90
8099;DHT22;4092;47.876;9.372;2023-11-22T08:17:45;2.20;99.90
8099;DHT22;4092;47.876;9.372;2023-11-22T08:20:12;2.20;99.90
8099;DHT22;4092;47.876;9.372;2023-11-22T08:22:43;2.10;99.90
8099;DHT22;4092;47.876;9.372;2023-11-22T08:25:15;2.10;99.90
8099;DHT22;4092;47.876;9.372;2023-11-22T08:27:42;2.00;99.90
8099;DHT22;4092;47.876;9.372;2023-11-22T08:30:10;2.00;99.90
8099;DHT22;4092;47.876;9.372;2023-11-22T08:32:39;2.00;99.90
8099;DHT22;4092;47.876;9.372;2023-11-22T08:35:08;2.10;99.90
8099;DHT22;4092;47.876;9.372;2023-11-22T08:37:35;2.10;99.90
8099;DHT22;4092;47.876;9.372;2023-11-22T08:40:05;2.10;99.90
8099;DHT22;4092;47.876;9.372;2023-11-22T08:42:34;2.10;99.90
8099;DHT22;4092;47.876;9.372;2023-11-22T08:45:02;2.10;99.90
8099;DHT22;4092;47.876;9.372;2023-11-22T08:47:29;2.10;99.90
8099;DHT22;4092;47.876;9.372;2023-11-22T08:49:57;2.00;99.90
8099;DHT22;4092;47.876;9.372;2023-11-22T08:52:24;2.00;99.90
8099;DHT22;4092;47.876;9.372;2023-11-22T08:54:51;2.00;99.90
8099;DHT22;4092;47.876;9.372;2023-11-22T08:57:19;1.90;99.90
8099;DHT22;4092;47.876;9.372;2023-11-22T08:59:47;1.90;99.90
8099;DHT22;4092;47.876;9.372;2023-11-22T09:02:14;1.90;99.90
8099;DHT22;4092;47.876;9.372;2023-11-22T09:04:41;1.90;99.90
8099;DHT22;4092;47.876;9.372;2023-11-22T09:07:08;1.80;99.90
8099;DHT22;4092;47.876;9.372;2023-11-22T09:09:36;1.80;99.90
8099;DHT22;4092;47.876;9.372;2023-11-22T09:12:05;1.80;99.90
8099;DHT22;4092;47.876;9.372;2023-11-22T09:14:39;1.80;99.90
8099;DHT22;4092;47.876;9.372;2023-11-22T09:17:08;1.80;99.90
8099;DHT22;4092;47.876;9.372;2023-11-22T09:19:36;1.80;99.90
8099;DHT22;4092;47.876;9.372;2023-11-22T09:22:04;1.80;99.90
8099;DHT22;4092;47.876;9.372;2023-11-22T09:24:33;1.80;99.90
8099;DHT22;4092;47.876;9.372;2023-11-22T09:27:02;1.80;99.90
8099;DHT22;4092;47.876;9.372;2023-11-22T09:29:31;1.90;99.90
8099;DHT22;4092;47.876;9.372;2023-11-22T09:31:58;1.80;99.90
8099;DHT22;4092;47.876;9.372;2023-11-22T09:34:28;1.80;99.90
8099;DHT22;4092;47.876;9.372;2023-11-22T09:36:56;1.80;99.90
8099;DHT22;4092;47.876;9.372;2023-11-22T09:39:24;1.90;99.90
8099;DHT22;4092;47.876;9.372;2023-11-22T09:41:52;1.90;99.90
8099;DHT22;4092;47.876;9.372;2023-11-22T09:44:19;1.90;99.90
8099;DHT22;4092;47.876;9.372;2023-11-22T09:46:48;2.00;99.90
8099;DHT22;4092;47.876;9.372;2023-11-22T09:49:21;2.00;99.90
8099;DHT22;4092;47.876;9.372;2023-11-22T09:51:51;2.00;99.90
8099;DHT22;4092;47.876;9.372;2023-11-22T09:54:23;2.10;99.90
8099;DHT22;4092;47.876;9.372;2023-11-22T09:56:57;2.10;99.90
8099;DHT22;4092;47.876;9.372;2023-11-22T09:59:27;2.10;99.90
8099;DHT22;4092;47.876;9.372;2023-11-22T10:01:55;2.10;99.90
8099;DHT22;4092;47.876;9.372;2023-11-22T10:04:25;2.10;99.90
8099;DHT22;4092;47.876;9.372;2023-11-22T10:06:56;2.10;99.90
8099;DHT22;4092;47.876;9.372;2023-11-22T10:09:24;2.10;99.90
8099;DHT22;4092;47.876;9.372;2023-11-22T10:11:53;2.20;99.90
8099;DHT22;4092;47.876;9.372;2023-11-22T10:14:24;2.30;99.90
8099;DHT22;4092;47.876;9.372;2023-11-22T10:16:58;2.30;99.90
8099;DHT22;4092;47.876;9.372;2023-11-22T10:19:26;2.20;99.90
8099;DHT22;4092;47.876;9.372;2023-11-22T10:22:04;2.20;99.90
8099;DHT22;4092;47.876;9.372;2023-11-22T10:24:32;2.30;99.90
8099;DHT22;4092;47.876;9.372;2023-11-22T10:27:00;2.30;99.90
8099;DHT22;4092;47.876;9.372;2023-11-22T10:29:28;2.30;99.90
8099;DHT22;4092;47.876;9.372;2023-11-22T10:31:55;2.20;99.90
8099;DHT22;4092;47.876;9.372;2023-11-22T10:34:24;2.20;99.90
8099;DHT22;4092;47.876;9.372;2023-11-22T10:36:51;2.20;99.90
8099;DHT22;4092;47.876;9.372;2023-11-22T10:39:21;2.20;99.90
8099;DHT22;4092;47.876;9.372;2023-11-22T10:41:48;2.20;99.90
8099;DHT22;4092;47.876;9.372;2023-11-22T10:44:20;2.20;99.90
8099;DHT22;4092;47.876;9.372;2023-11-22T10:46:47;2.10;99.90
8099;DHT22;4092;47.876;9.372;2023-11-22T10:49:16;2.10;99.90
8099;DHT22;4092;47.876;9.372;2023-11-22T10:51:45;2.10;99.90
8099;DHT22;4092;47.876;9.372;2023-11-22T10:54:15;2.00;99.90
8099;DHT22;4092;47.876;9.372;2023-11-22T10:56:46;1.90;99.90
8099;DHT22;4092;47.876;9.372;2023-11-22T10:59:19;2.00;99.90
8099;DHT22;4092;47.876;9.372;2023-11-22T11:01:50;1.90;99.90
8099;DHT22;4092;47.876;9.372;2023-11-22T11:04:20;1.90;99.90
8099;DHT22;4092;47.876;9.372;2023-11-22T11:06:54;1.90;99.90
8099;DHT22;4092;47.876;9.372;2023-11-22T11:09:22;1.90;99.90
8099;DHT22;4092;47.876;9.372;2023-11-22T11:11:54;1.90;99.90
8099;DHT22;4092;47.876;9.372;2023-11-22T11:14:22;1.90;99.90
8099;DHT22;4092;47.876;9.372;2023-11-22T11:16:50;2.00;99.90
8099;DHT22;4092;47.876;9.372;2023-11-22T11:19:20;2.00;99.90
8099;DHT22;4092;47.876;9.372;2023-11-22T11:21:48;2.00;99.90
8099;DHT22;4092;47.876;9.372;2023-11-22T11:24:14;2.00;99.90
8099;DHT22;4092;47.876;9.372;2023-11-22T11:26:47;2.10;99.90
8099;DHT22;4092;47.876;9.372;2023-11-22T11:29:31;2.10;99.90
8099;DHT22;4092;47.876;9.372;2023-11-22T11:31:58;2.10;99.90
8099;DHT22;4092;47.876;9.372;2023-11-22T11:34:27;2.20;99.90
8099;DHT22;4092;47.876;9.372;2023-11-22T11:36:55;2.20;99.90
8099;DHT22;4092;47.876;9.372;2023-11-22T11:39:26;2.20;99.90
8099;DHT22;4092;47.876;9.372;2023-11-22T11:42:08;2.20;99.90
8099;DHT22;4092;47.876;9.372;2023-11-22T11:44:37;2.20;99.90
8099;DHT22;4092;47.876;9.372;2023-11-22T11:47:11;2.20;99.90
8099;DHT22;4092;47.876;9.372;2023-11-22T11:49:38;2.20;99.90
8099;DHT22;4092;47.876;9.372;2023-11-22T11:52:05;2.30;99.90
8099;DHT22;4092;47.876;9.372;2023-11-22T11:54:33;2.30;99.90
8099;DHT22;4092;47.876;9.372;2023-11-22T11:57:01;2.20;99.90
8099;DHT22;4092;47.876;9.372;2023-11-22T11:59:28;2.20;99.90
8099;DHT22;4092;47.876;9.372;2023-11-22T12:01:59;2.30;99.90
8099;DHT22;4092;47.876;9.372;2023-11-22T12:04:26;2.20;99.90
8099;DHT22;4092;47.876;9.372;2023-11-22T12:06:54;2.30;99.90
8099;DHT22;4092;47.876;9.372;2023-11-22T12:09:24;2.20;99.90
8099;DHT22;4092;47.876;9.372;2023-11-22T12:11:52;2.30;99.90
8099;DHT22;4092;47.876;9.372;2023-11-22T12:14:20;2.40;99.90
8099;DHT22;4092;47.876;9.372;2023-11-22T12:16:50;2.40;99.90
8099;DHT22;4092;47.876;9.372;2023-11-22T12:19:34;2.50;99.90
8099;DHT22;4092;47.876;9.372;2023-11-22T12:22:03;2.50;99.90
8099;DHT22;4092;47.876;9.372;2023-11-22T12:24:32;2.60;99.90
8099;DHT22;4092;47.876;9.372;2023-11-22T12:27:00;2.50;99.90
8099;DHT22;4092;47.876;9.372;2023-11-22T12:29:27;2.50;99.90
8099;DHT22;4092;47.876;9.372;2023-11-22T12:31:54;2.50;99.90
8099;DHT22;4092;47.876;9.372;2023-11-22T12:34:24;2.40;99.90
8099;DHT22;4092;47.876;9.372;2023-11-22T12:36:51;2.40;99.90
8099;DHT22;4092;47.876;9.372;2023-11-22T12:39:20;2.50;99.90
8099;DHT22;4092;47.876;9.372;2023-11-22T12:41:49;2.50;99.90
8099;DHT22;4092;47.876;9.372;2023-11-22T12:44:18;2.50;99.90
8099;DHT22;4092;47.876;9.372;2023-11-22T12:46:46;2.40;99.90
8099;DHT22;4092;47.876;9.372;2023-11-22T12:49:14;2.40;99.90
8099;DHT22;4092;47.876;9.372;2023-11-22T12:51:51;2.40;99.90
8099;DHT22;4092;47.876;9.372;2023-11-22T12:54:19;2.40;99.90
8099;DHT22;4092;47.876;9.372;2023-11-22T12:56:48;2.50;99.90
8099;DHT22;4092;47.876;9.372;2023-11-22T12:59:16;2.50;99.90
8099;DHT22;4092;47.876;9.372;2023-11-22T13:01:44;2.40;99.90
8099;DHT22;4092;47.876;9.372;2023-11-22T13:04:11;2.30;99.90
8099;DHT22;4092;47.876;9.372;2023-11-22T13:06:39;2.30;99.90
8099;DHT22;4092;47.876;9.372;2023-11-22T13:09:08;2.30;99.90
8099;DHT22;4092;47.876;9.372;2023-11-22T13:11:40;2.30;99.90
8099;DHT22;4092;47.876;9.372;2023-11-22T13:14:08;2.30;99.90
8099;DHT22;4092;47.876;9.372;2023-11-22T13:16:35;2.30;99.90
8099;DHT22;4092;47.876;9.372;2023-11-22T13:19:04;2.20;99.90
8099;DHT22;4092;47.876;9.372;2023-11-22T13:21:31;2.20;99.90
8099;DHT22;4092;47.876;9.372;2023-11-22T13:23:58;2.20;99.90
8099;DHT22;4092;47.876;9.372;2023-11-22T13:26:27;2.10;99.90
8099;DHT22;4092;47.876;9.372;2023-11-22T13:28:54;2.10;99.90
8099;DHT22;4092;47.876;9.372;2023-11-22T13:31:21;2.10;99.90
8099;DHT22;4092;47.876;9.372;2023-11-22T13:33:50;2.00;99.90
8099;DHT22;4092;47.876;9.372;2023-11-22T13:36:17;2.00;99.90
8099;DHT22;4092;47.876;9.372;2023-11-22T13:38:44;2.10;99.90
8099;DHT22;4092;47.876;9.372;2023-11-22T13:41:11;2.00;99.90
8099;DHT22;4092;47.876;9.372;2023-11-22T13:43:39;2.00;99.90
8099;DHT22;4092;47.876;9.372;2023-11-22T13:46:06;2.00;99.90
8099;DHT22;4092;47.876;9.372;2023-11-22T13:48:35;2.00;99.90
8099;DHT22;4092;47.876;9.372;2023-11-22T13:51:03;2.10;99.90
8099;DHT22;4092;47.876;9.372;2023-11-22T13:53:30;2.10;99.90
8099;DHT22;4092;47.876;9.372;2023-11-22T13:56:02;2.00;99.90
8099;DHT22;4092;47.876;9.372;2023-11-22T13:58:34;2.00;99.90
8099;DHT22;4092;47.876;9.372;2023-11-22T14:01:03;2.00;99.90
8099;DHT22;4092;47.876;9.372;2023-11-22T14:03:31;1.90;99.90
8099;DHT22;4092;47.876;9.372;2023-11-22T14:05:58;1.90;99.90
8099;DHT22;4092;47.876;9.372;2023-11-22T14:08:26;1.90;99.90
8099;DHT22;4092;47.876;9.372;2023-11-22T14:10:53;1.90;99.90
8099;DHT22;4092;47.876;9.372;2023-11-22T14:13:20;1.80;99.90
8099;DHT22;4092;47.876;9.372;2023-11-22T14:15:47;1.80;99.90
8099;DHT22;4092;47.876;9.372;2023-11-22T14:18:16;1.70;99.90
8099;DHT22;4092;47.876;9.372;2023-11-22T14:20:43;1.70;99.90
8099;DHT22;4092;47.876;9.372;2023-11-22T14:23:10;1.70;99.90
8099;DHT22;4092;47.876;9.372;2023-11-22T14:25:37;1.70;99.90
8099;DHT22;4092;47.876;9.372;2023-11-22T14:28:04;1.70;99.90
8099;DHT22;4092;47.876;9.372;2023-11-22T14:30:31;1.70;99.90
8099;DHT22;4092;47.876;9.372;2023-11-22T14:33:01;1.60;99.90
8099;DHT22;4092;47.876;9.372;2023-11-22T14:35:33;1.60;99.90
8099;DHT22;4092;47.876;9.372;2023-11-22T14:38:01;1.60;99.90
8099;DHT22;4092;47.876;9.372;2023-11-22T14:40:29;1.60;99.90
8099;DHT22;4092;47.876;9.372;2023-11-22T14:42:58;1.60;99.90
8099;DHT22;4092;47.876;9.372;2023-11-22T14:45:26;1.60;99.90
8099;DHT22;4092;47.876;9.372;2023-11-22T14:47:53;1.60;99.90
8099;DHT22;4092;47.876;9.372;2023-11-22T14:50:21;1.60;99.90
8099;DHT22;4092;47.876;9.372;2023-11-22T14:52:54;1.60;99.90
8099;DHT22;4092;47.876;9.372;2023-11-22T14:55:21;1.60;99.90
8099;DHT22;4092;47.876;9.372;2023-11-22T14:57:51;1.60;99.90
8099;DHT22;4092;47.876;9.372;2023-11-22T15:00:19;1.60;99.90
8099;DHT22;4092;47.876;9.372;2023-11-22T15:02:46;1.50;99.90
8099;DHT22;4092;47.876;9.372;2023-11-22T15:05:17;1.50;99.90
8099;DHT22;4092;47.876;9.372;2023-11-22T15:07:46;1.50;99.90
8099;DHT22;4092;47.876;9.372;2023-11-22T15:10:21;1.50;99.90
8099;DHT22;4092;47.876;9.372;2023-11-22T15:12:48;1.50;99.90
8099;DHT22;4092;47.876;9.372;2023-11-22T15:15:16;1.50;99.90
8099;DHT22;4092;47.876;9.372;2023-11-22T15:17:44;1.50;99.90
8099;DHT22;4092;47.876;9.372;2023-11-22T15:20:11;1.50;99.90
8099;DHT22;4092;47.876;9.372;2023-11-22T15:22:41;1.50;99.90
8099;DHT22;4092;47.876;9.372;2023-11-22T15:25:09;1.50;99.90
8099;DHT22;4092;47.876;9.372;2023-11-22T15:27:37;1.50;99.90
8099;DHT22;4092;47.876;9.372;2023-11-22T15:30:06;1.50;99.90
8099;DHT22;4092;47.876;9.372;2023-11-22T15:32:34;1.50;99.90
8099;DHT22;4092;47.876;9.372;2023-11-22T15:35:01;1.50;99.90
8099;DHT22;4092;47.876;9.372;2023-11-22T15:37:30;1.40;99.90
8099;DHT22;4092;47.876;9.372;2023-11-22T15:39:57;1.50;99.90
8099;DHT22;4092;47.876;9.372;2023-11-22T15:42:25;1.50;99.90
8099;DHT22;4092;47.876;9.372;2023-11-22T15:44:53;1.40;99.90
8099;DHT22;4092;47.876;9.372;2023-11-22T15:47:21;1.40;99.90
8099;DHT22;4092;47.876;9.372;2023-11-22T15:49:48;1.40;99.90
8099;DHT22;4092;47.876;9.372;2023-11-22T15:52:16;1.40;99.90
8099;DHT22;4092;47.876;9.372;2023-11-22T15:54:43;1.40;99.90
8099;DHT22;4092;47.876;9.372;2023-11-22T15:57:10;1.40;99.90
8099;DHT22;4092;47.876;9.372;2023-11-22T15:59:37;1.50;99.90
8099;DHT22;4092;47.876;9.372;2023-11-22T16:02:06;1.40;99.90
8099;DHT22;4092;47.876;9.372;2023-11-22T16:04:33;1.40;99.90
8099;DHT22;4092;47.876;9.372;2023-11-22T16:07:00;1.40;99.90
8099;DHT22;4092;47.876;9.372;2023-11-22T16:09:28;1.40;99.90
8099;DHT22;4092;47.876;9.372;2023-11-22T16:11:55;1.40;99.90
8099;DHT22;4092;47.876;9.372;2023-11-22T16:14:22;1.40;99.90
8099;DHT22;4092;47.876;9.372;2023-11-22T16:16:49;1.50;99.90
8099;DHT22;4092;47.876;9.372;2023-11-22T16:19:19;1.50;99.90
8099;DHT22;4092;47.876;9.372;2023-11-22T16:21:46;1.50;99.90